Weather at Jaipur International Airport

Public forecast

Using degrees Celsius for public forecast. Weather courtesy of forecast.io.

Current aviation weather report (METAR) for Jaipur International Airport

2024/06/16 11:00 (retrieved 38 minutes ago)

VIJP 161100Z 27012KT 6000 FEW030 SCT100 42/20 Q1001 NOSIG

Aviation forecast (TAF) for Jaipur International Airport

2024/06/16 06:00 (retrieved 6 hours ago)

TAF VIJP 160500Z 1606/1712 27010KT 5000 HZ NSC BECMG 1615/1617 27008KT 4000 HZ FEW030 BECMG 1705/1707 27010KT 5000 HZ SCT030 SCT100